METAR Data
IDs: Format: Raw Decoded Include TAF

Data at: 2112 UTC 02 Aug 2021

LIBQ 022055Z VRB03KT CAVOK 23/00 Q1027 RMK SKC MON LIB VAL NIL VIS MIN 9999